sensor_id;sensor_type;location;lat;lon;timestamp;P1;durP1;ratioP1;P2;durP2;ratioP2
5460;SDS011;2753;49.196;8.286;2022-12-07T00:01:03;9.73;;;6.87;;
5460;SDS011;2753;49.196;8.286;2022-12-07T00:03:40;12.90;;;7.23;;
5460;SDS011;2753;49.196;8.286;2022-12-07T00:06:08;11.53;;;7.13;;
5460;SDS011;2753;49.196;8.286;2022-12-07T00:08:36;11.43;;;7.17;;
5460;SDS011;2753;49.196;8.286;2022-12-07T00:11:05;13.30;;;7.73;;
5460;SDS011;2753;49.196;8.286;2022-12-07T00:13:31;17.80;;;10.80;;
5460;SDS011;2753;49.196;8.286;2022-12-07T00:16:05;22.33;;;11.30;;
5460;SDS011;2753;49.196;8.286;2022-12-07T00:18:31;14.77;;;10.43;;
5460;SDS011;2753;49.196;8.286;2022-12-07T00:23:28;19.20;;;12.50;;
5460;SDS011;2753;49.196;8.286;2022-12-07T00:25:54;22.50;;;13.73;;
5460;SDS011;2753;49.196;8.286;2022-12-07T00:28:19;22.70;;;12.77;;
5460;SDS011;2753;49.196;8.286;2022-12-07T00:30:45;19.57;;;12.03;;
5460;SDS011;2753;49.196;8.286;2022-12-07T00:33:11;22.80;;;12.40;;
5460;SDS011;2753;49.196;8.286;2022-12-07T00:35:36;16.90;;;10.10;;
5460;SDS011;2753;49.196;8.286;2022-12-07T00:38:02;19.63;;;10.57;;
5460;SDS011;2753;49.196;8.286;2022-12-07T00:40:28;12.37;;;8.33;;
5460;SDS011;2753;49.196;8.286;2022-12-07T00:43:29;12.20;;;7.50;;
5460;SDS011;2753;49.196;8.286;2022-12-07T00:45:55;12.30;;;8.20;;
5460;SDS011;2753;49.196;8.286;2022-12-07T00:48:21;14.33;;;8.40;;
5460;SDS011;2753;49.196;8.286;2022-12-07T00:50:48;17.20;;;8.43;;
5460;SDS011;2753;49.196;8.286;2022-12-07T00:53:14;14.77;;;8.00;;
5460;SDS011;2753;49.196;8.286;2022-12-07T00:55:42;17.07;;;8.40;;
5460;SDS011;2753;49.196;8.286;2022-12-07T00:58:09;15.57;;;8.43;;
5460;SDS011;2753;49.196;8.286;2022-12-07T01:00:35;17.60;;;9.47;;
5460;SDS011;2753;49.196;8.286;2022-12-07T01:03:03;18.30;;;9.93;;
5460;SDS011;2753;49.196;8.286;2022-12-07T01:05:29;19.30;;;9.40;;
5460;SDS011;2753;49.196;8.286;2022-12-07T01:07:55;32.47;;;21.03;;
5460;SDS011;2753;49.196;8.286;2022-12-07T01:10:20;49.20;;;33.13;;
5460;SDS011;2753;49.196;8.286;2022-12-07T01:12:46;49.70;;;32.00;;
5460;SDS011;2753;49.196;8.286;2022-12-07T01:15:12;50.23;;;33.93;;
5460;SDS011;2753;49.196;8.286;2022-12-07T01:17:38;41.63;;;28.97;;
5460;SDS011;2753;49.196;8.286;2022-12-07T01:20:04;40.53;;;28.47;;
5460;SDS011;2753;49.196;8.286;2022-12-07T01:22:30;28.73;;;18.10;;
5460;SDS011;2753;49.196;8.286;2022-12-07T01:24:56;30.60;;;20.50;;
5460;SDS011;2753;49.196;8.286;2022-12-07T01:27:21;19.97;;;12.70;;
5460;SDS011;2753;49.196;8.286;2022-12-07T01:29:47;22.63;;;15.90;;
5460;SDS011;2753;49.196;8.286;2022-12-07T01:32:13;20.57;;;11.40;;
5460;SDS011;2753;49.196;8.286;2022-12-07T01:34:38;14.30;;;9.17;;
5460;SDS011;2753;49.196;8.286;2022-12-07T01:37:04;17.77;;;9.17;;
5460;SDS011;2753;49.196;8.286;2022-12-07T01:39:30;14.70;;;8.23;;
5460;SDS011;2753;49.196;8.286;2022-12-07T01:41:55;15.70;;;8.80;;
5460;SDS011;2753;49.196;8.286;2022-12-07T01:44:25;8.30;;;6.07;;
5460;SDS011;2753;49.196;8.286;2022-12-07T01:46:59;13.73;;;7.80;;
5460;SDS011;2753;49.196;8.286;2022-12-07T01:52:09;10.10;;;6.60;;
5460;SDS011;2753;49.196;8.286;2022-12-07T01:54:52;12.17;;;7.20;;
5460;SDS011;2753;49.196;8.286;2022-12-07T01:57:24;13.03;;;7.90;;
5460;SDS011;2753;49.196;8.286;2022-12-07T01:59:51;10.63;;;7.03;;
5460;SDS011;2753;49.196;8.286;2022-12-07T02:02:19;22.33;;;12.27;;
5460;SDS011;2753;49.196;8.286;2022-12-07T02:04:50;24.60;;;13.27;;
5460;SDS011;2753;49.196;8.286;2022-12-07T02:07:18;52.87;;;25.07;;
5460;SDS011;2753;49.196;8.286;2022-12-07T02:09:45;49.87;;;25.27;;
5460;SDS011;2753;49.196;8.286;2022-12-07T02:12:12;57.43;;;25.47;;
5460;SDS011;2753;49.196;8.286;2022-12-07T02:14:38;56.17;;;29.43;;
5460;SDS011;2753;49.196;8.286;2022-12-07T02:17:07;53.43;;;29.10;;
5460;SDS011;2753;49.196;8.286;2022-12-07T02:25:22;75.77;;;30.70;;
5460;SDS011;2753;49.196;8.286;2022-12-07T02:30:31;67.63;;;27.57;;
5460;SDS011;2753;49.196;8.286;2022-12-07T02:35:55;56.37;;;23.63;;
5460;SDS011;2753;49.196;8.286;2022-12-07T02:38:35;59.00;;;26.97;;
5460;SDS011;2753;49.196;8.286;2022-12-07T02:41:13;54.63;;;25.00;;
5460;SDS011;2753;49.196;8.286;2022-12-07T02:43:46;29.10;;;16.50;;
5460;SDS011;2753;49.196;8.286;2022-12-07T02:49:38;61.90;;;27.40;;
5460;SDS011;2753;49.196;8.286;2022-12-07T02:52:05;72.40;;;31.40;;
5460;SDS011;2753;49.196;8.286;2022-12-07T02:54:31;38.27;;;20.73;;
5460;SDS011;2753;49.196;8.286;2022-12-07T02:57:00;17.47;;;10.93;;
5460;SDS011;2753;49.196;8.286;2022-12-07T03:15:34;17.60;;;9.40;;
5460;SDS011;2753;49.196;8.286;2022-12-07T03:18:12;13.40;;;8.00;;
5460;SDS011;2753;49.196;8.286;2022-12-07T03:20:40;17.10;;;8.40;;
5460;SDS011;2753;49.196;8.286;2022-12-07T03:23:09;13.83;;;7.90;;
5460;SDS011;2753;49.196;8.286;2022-12-07T03:25:45;15.80;;;9.60;;
5460;SDS011;2753;49.196;8.286;2022-12-07T03:28:13;19.73;;;7.37;;
5460;SDS011;2753;49.196;8.286;2022-12-07T03:30:44;15.30;;;8.30;;
5460;SDS011;2753;49.196;8.286;2022-12-07T03:33:22;14.37;;;8.23;;
5460;SDS011;2753;49.196;8.286;2022-12-07T03:41:42;14.00;;;7.97;;
5460;SDS011;2753;49.196;8.286;2022-12-07T03:44:08;11.87;;;7.77;;
5460;SDS011;2753;49.196;8.286;2022-12-07T03:49:16;19.83;;;9.23;;
5460;SDS011;2753;49.196;8.286;2022-12-07T03:51:50;14.63;;;8.23;;
5460;SDS011;2753;49.196;8.286;2022-12-07T03:54:24;13.03;;;9.23;;
5460;SDS011;2753;49.196;8.286;2022-12-07T03:56:56;16.83;;;8.70;;
5460;SDS011;2753;49.196;8.286;2022-12-07T03:59:23;11.50;;;8.17;;
5460;SDS011;2753;49.196;8.286;2022-12-07T04:01:57;15.10;;;8.70;;
5460;SDS011;2753;49.196;8.286;2022-12-07T04:04:27;17.50;;;9.80;;
5460;SDS011;2753;49.196;8.286;2022-12-07T04:06:53;25.33;;;10.63;;
5460;SDS011;2753;49.196;8.286;2022-12-07T04:09:19;15.23;;;8.50;;
5460;SDS011;2753;49.196;8.286;2022-12-07T04:11:45;15.90;;;8.50;;
5460;SDS011;2753;49.196;8.286;2022-12-07T04:14:11;13.80;;;8.67;;
5460;SDS011;2753;49.196;8.286;2022-12-07T04:19:14;13.63;;;8.27;;
5460;SDS011;2753;49.196;8.286;2022-12-07T04:21:40;13.50;;;7.43;;
5460;SDS011;2753;49.196;8.286;2022-12-07T04:24:06;17.00;;;8.70;;
5460;SDS011;2753;49.196;8.286;2022-12-07T04:26:32;24.20;;;7.80;;
5460;SDS011;2753;49.196;8.286;2022-12-07T04:28:57;9.53;;;7.57;;
5460;SDS011;2753;49.196;8.286;2022-12-07T04:31:23;15.80;;;8.20;;
5460;SDS011;2753;49.196;8.286;2022-12-07T04:33:49;12.83;;;7.50;;
5460;SDS011;2753;49.196;8.286;2022-12-07T04:36:14;11.67;;;7.70;;
5460;SDS011;2753;49.196;8.286;2022-12-07T04:38:40;12.90;;;7.27;;
5460;SDS011;2753;49.196;8.286;2022-12-07T04:41:06;16.00;;;8.00;;
5460;SDS011;2753;49.196;8.286;2022-12-07T04:43:34;12.63;;;7.83;;
5460;SDS011;2753;49.196;8.286;2022-12-07T04:46:00;12.83;;;7.77;;
5460;SDS011;2753;49.196;8.286;2022-12-07T04:48:26;17.73;;;8.70;;
5460;SDS011;2753;49.196;8.286;2022-12-07T04:50:52;16.77;;;9.37;;
5460;SDS011;2753;49.196;8.286;2022-12-07T04:53:17;20.87;;;9.67;;
5460;SDS011;2753;49.196;8.286;2022-12-07T04:55:44;19.10;;;10.30;;
5460;SDS011;2753;49.196;8.286;2022-12-07T04:58:11;14.63;;;8.53;;
5460;SDS011;2753;49.196;8.286;2022-12-07T05:00:37;16.13;;;9.07;;
5460;SDS011;2753;49.196;8.286;2022-12-07T05:03:04;17.77;;;8.73;;
5460;SDS011;2753;49.196;8.286;2022-12-07T05:05:29;16.93;;;8.90;;
5460;SDS011;2753;49.196;8.286;2022-12-07T05:07:55;17.10;;;9.30;;
5460;SDS011;2753;49.196;8.286;2022-12-07T05:10:21;14.30;;;8.33;;
5460;SDS011;2753;49.196;8.286;2022-12-07T05:12:46;12.93;;;7.90;;
5460;SDS011;2753;49.196;8.286;2022-12-07T05:15:13;10.97;;;7.63;;
5460;SDS011;2753;49.196;8.286;2022-12-07T05:17:39;15.70;;;8.37;;
5460;SDS011;2753;49.196;8.286;2022-12-07T05:20:05;15.80;;;8.47;;
5460;SDS011;2753;49.196;8.286;2022-12-07T05:22:34;16.20;;;8.57;;
5460;SDS011;2753;49.196;8.286;2022-12-07T05:24:59;17.03;;;7.60;;
5460;SDS011;2753;49.196;8.286;2022-12-07T05:27:25;17.83;;;6.93;;
5460;SDS011;2753;49.196;8.286;2022-12-07T05:29:51;10.87;;;6.53;;
5460;SDS011;2753;49.196;8.286;2022-12-07T05:32:17;17.33;;;7.20;;
5460;SDS011;2753;49.196;8.286;2022-12-07T05:34:43;12.03;;;7.00;;
5460;SDS011;2753;49.196;8.286;2022-12-07T05:37:08;13.70;;;8.07;;
5460;SDS011;2753;49.196;8.286;2022-12-07T05:39:34;10.77;;;7.50;;
5460;SDS011;2753;49.196;8.286;2022-12-07T05:42:00;10.83;;;6.60;;
5460;SDS011;2753;49.196;8.286;2022-12-07T05:44:41;16.00;;;8.77;;
5460;SDS011;2753;49.196;8.286;2022-12-07T05:47:09;11.63;;;7.60;;
5460;SDS011;2753;49.196;8.286;2022-12-07T05:49:38;13.93;;;8.40;;
5460;SDS011;2753;49.196;8.286;2022-12-07T05:52:04;13.73;;;8.17;;
5460;SDS011;2753;49.196;8.286;2022-12-07T05:54:30;14.83;;;8.60;;
5460;SDS011;2753;49.196;8.286;2022-12-07T05:56:55;12.27;;;7.83;;
5460;SDS011;2753;49.196;8.286;2022-12-07T05:59:21;14.87;;;9.10;;
5460;SDS011;2753;49.196;8.286;2022-12-07T06:01:47;12.80;;;7.67;;
5460;SDS011;2753;49.196;8.286;2022-12-07T06:04:24;16.47;;;8.77;;
5460;SDS011;2753;49.196;8.286;2022-12-07T06:06:51;12.60;;;7.90;;
5460;SDS011;2753;49.196;8.286;2022-12-07T06:09:17;14.00;;;8.97;;
5460;SDS011;2753;49.196;8.286;2022-12-07T06:11:45;18.70;;;9.40;;
5460;SDS011;2753;49.196;8.286;2022-12-07T06:14:30;21.00;;;9.20;;
5460;SDS011;2753;49.196;8.286;2022-12-07T06:16:55;16.90;;;9.70;;
5460;SDS011;2753;49.196;8.286;2022-12-07T06:19:21;15.33;;;8.80;;
5460;SDS011;2753;49.196;8.286;2022-12-07T06:21:47;14.50;;;9.00;;
5460;SDS011;2753;49.196;8.286;2022-12-07T06:24:13;16.20;;;8.60;;
5460;SDS011;2753;49.196;8.286;2022-12-07T06:26:41;20.10;;;7.67;;
5460;SDS011;2753;49.196;8.286;2022-12-07T06:29:07;14.30;;;8.23;;
5460;SDS011;2753;49.196;8.286;2022-12-07T06:31:33;14.90;;;9.07;;
5460;SDS011;2753;49.196;8.286;2022-12-07T06:34:04;14.70;;;9.57;;
5460;SDS011;2753;49.196;8.286;2022-12-07T06:36:31;17.80;;;9.87;;
5460;SDS011;2753;49.196;8.286;2022-12-07T06:38:57;28.10;;;13.07;;
5460;SDS011;2753;49.196;8.286;2022-12-07T06:41:23;39.00;;;21.70;;
5460;SDS011;2753;49.196;8.286;2022-12-07T06:43:49;15.57;;;9.10;;
5460;SDS011;2753;49.196;8.286;2022-12-07T07:14:42;13.53;;;8.67;;
5460;SDS011;2753;49.196;8.286;2022-12-07T07:19:40;15.43;;;8.70;;
5460;SDS011;2753;49.196;8.286;2022-12-07T07:24:41;21.40;;;9.50;;
5460;SDS011;2753;49.196;8.286;2022-12-07T07:27:06;17.07;;;9.47;;
5460;SDS011;2753;49.196;8.286;2022-12-07T07:29:32;16.80;;;9.43;;
5460;SDS011;2753;49.196;8.286;2022-12-07T07:31:58;17.20;;;9.53;;
5460;SDS011;2753;49.196;8.286;2022-12-07T07:34:24;15.60;;;9.97;;
5460;SDS011;2753;49.196;8.286;2022-12-07T07:36:50;16.97;;;10.27;;
5460;SDS011;2753;49.196;8.286;2022-12-07T07:39:16;21.37;;;11.80;;
5460;SDS011;2753;49.196;8.286;2022-12-07T07:41:41;17.40;;;9.70;;
5460;SDS011;2753;49.196;8.286;2022-12-07T07:46:37;15.53;;;9.43;;
5460;SDS011;2753;49.196;8.286;2022-12-07T07:49:03;33.23;;;15.20;;
5460;SDS011;2753;49.196;8.286;2022-12-07T07:51:29;30.67;;;16.23;;
5460;SDS011;2753;49.196;8.286;2022-12-07T07:53:54;19.30;;;10.23;;
5460;SDS011;2753;49.196;8.286;2022-12-07T07:56:20;26.07;;;14.70;;
5460;SDS011;2753;49.196;8.286;2022-12-07T07:58:46;20.00;;;12.23;;
5460;SDS011;2753;49.196;8.286;2022-12-07T08:01:11;21.87;;;11.60;;
5460;SDS011;2753;49.196;8.286;2022-12-07T08:03:38;18.30;;;10.93;;
5460;SDS011;2753;49.196;8.286;2022-12-07T08:06:04;17.93;;;10.30;;
5460;SDS011;2753;49.196;8.286;2022-12-07T08:08:30;24.37;;;11.67;;
5460;SDS011;2753;49.196;8.286;2022-12-07T08:10:56;30.80;;;14.87;;
5460;SDS011;2753;49.196;8.286;2022-12-07T08:13:25;24.47;;;13.00;;
5460;SDS011;2753;49.196;8.286;2022-12-07T08:15:51;25.23;;;14.20;;
5460;SDS011;2753;49.196;8.286;2022-12-07T08:18:17;21.70;;;13.27;;
5460;SDS011;2753;49.196;8.286;2022-12-07T08:20:43;20.17;;;12.43;;
5460;SDS011;2753;49.196;8.286;2022-12-07T08:23:09;24.60;;;13.33;;
5460;SDS011;2753;49.196;8.286;2022-12-07T08:25:36;22.17;;;15.30;;
5460;SDS011;2753;49.196;8.286;2022-12-07T08:28:02;32.30;;;15.83;;
5460;SDS011;2753;49.196;8.286;2022-12-07T08:30:28;23.87;;;14.50;;
5460;SDS011;2753;49.196;8.286;2022-12-07T08:32:55;18.50;;;12.00;;
5460;SDS011;2753;49.196;8.286;2022-12-07T08:35:21;21.77;;;13.60;;
5460;SDS011;2753;49.196;8.286;2022-12-07T08:37:46;23.47;;;12.60;;
5460;SDS011;2753;49.196;8.286;2022-12-07T08:40:13;27.13;;;15.50;;
5460;SDS011;2753;49.196;8.286;2022-12-07T08:42:43;27.23;;;17.13;;
5460;SDS011;2753;49.196;8.286;2022-12-07T08:45:13;26.53;;;12.67;;
5460;SDS011;2753;49.196;8.286;2022-12-07T08:47:41;24.33;;;13.33;;
5460;SDS011;2753;49.196;8.286;2022-12-07T08:50:15;18.20;;;11.50;;
5460;SDS011;2753;49.196;8.286;2022-12-07T08:52:43;22.63;;;12.57;;
5460;SDS011;2753;49.196;8.286;2022-12-07T08:55:09;33.83;;;17.17;;
5460;SDS011;2753;49.196;8.286;2022-12-07T08:57:36;53.17;;;16.03;;
5460;SDS011;2753;49.196;8.286;2022-12-07T09:00:03;28.97;;;13.60;;
5460;SDS011;2753;49.196;8.286;2022-12-07T09:02:30;29.67;;;18.73;;
5460;SDS011;2753;49.196;8.286;2022-12-07T09:04:57;24.23;;;12.43;;
5460;SDS011;2753;49.196;8.286;2022-12-07T09:07:23;32.00;;;18.70;;
5460;SDS011;2753;49.196;8.286;2022-12-07T09:09:49;28.13;;;14.23;;
5460;SDS011;2753;49.196;8.286;2022-12-07T09:12:15;21.40;;;12.00;;
5460;SDS011;2753;49.196;8.286;2022-12-07T09:14:40;25.73;;;13.50;;
5460;SDS011;2753;49.196;8.286;2022-12-07T09:17:10;27.93;;;16.10;;
5460;SDS011;2753;49.196;8.286;2022-12-07T09:19:37;42.83;;;21.10;;
5460;SDS011;2753;49.196;8.286;2022-12-07T09:22:04;29.93;;;16.37;;
5460;SDS011;2753;49.196;8.286;2022-12-07T09:24:30;27.40;;;13.30;;
5460;SDS011;2753;49.196;8.286;2022-12-07T09:26:57;34.10;;;14.83;;
5460;SDS011;2753;49.196;8.286;2022-12-07T09:29:23;35.83;;;18.30;;
5460;SDS011;2753;49.196;8.286;2022-12-07T09:31:48;24.37;;;14.70;;
5460;SDS011;2753;49.196;8.286;2022-12-07T09:34:14;36.17;;;16.43;;
5460;SDS011;2753;49.196;8.286;2022-12-07T09:36:40;36.57;;;19.03;;
5460;SDS011;2753;49.196;8.286;2022-12-07T09:39:07;35.47;;;16.30;;
5460;SDS011;2753;49.196;8.286;2022-12-07T09:41:33;43.77;;;20.77;;
5460;SDS011;2753;49.196;8.286;2022-12-07T09:44:05;30.33;;;16.47;;
5460;SDS011;2753;49.196;8.286;2022-12-07T09:46:36;36.83;;;20.20;;
5460;SDS011;2753;49.196;8.286;2022-12-07T09:49:05;18.87;;;11.27;;
5460;SDS011;2753;49.196;8.286;2022-12-07T09:51:45;19.17;;;11.70;;
5460;SDS011;2753;49.196;8.286;2022-12-07T09:54:12;24.97;;;13.07;;
5460;SDS011;2753;49.196;8.286;2022-12-07T09:56:39;15.63;;;10.40;;
5460;SDS011;2753;49.196;8.286;2022-12-07T09:59:05;21.63;;;12.23;;
5460;SDS011;2753;49.196;8.286;2022-12-07T10:01:34;25.73;;;10.60;;
5460;SDS011;2753;49.196;8.286;2022-12-07T10:04:14;18.67;;;11.90;;
5460;SDS011;2753;49.196;8.286;2022-12-07T10:06:42;19.60;;;10.63;;
5460;SDS011;2753;49.196;8.286;2022-12-07T10:09:09;24.67;;;13.17;;
5460;SDS011;2753;49.196;8.286;2022-12-07T10:11:57;24.17;;;12.60;;
5460;SDS011;2753;49.196;8.286;2022-12-07T10:14:29;24.70;;;12.03;;
5460;SDS011;2753;49.196;8.286;2022-12-07T10:16:57;23.67;;;13.57;;
5460;SDS011;2753;49.196;8.286;2022-12-07T10:19:27;26.10;;;13.50;;
5460;SDS011;2753;49.196;8.286;2022-12-07T10:22:02;16.70;;;10.83;;
5460;SDS011;2753;49.196;8.286;2022-12-07T10:24:39;19.60;;;12.30;;
5460;SDS011;2753;49.196;8.286;2022-12-07T10:27:17;25.00;;;12.57;;
5460;SDS011;2753;49.196;8.286;2022-12-07T10:29:49;19.80;;;11.20;;
5460;SDS011;2753;49.196;8.286;2022-12-07T10:34:42;25.30;;;14.87;;
5460;SDS011;2753;49.196;8.286;2022-12-07T10:42:15;22.93;;;13.33;;
5460;SDS011;2753;49.196;8.286;2022-12-07T10:47:38;21.10;;;11.57;;
5460;SDS011;2753;49.196;8.286;2022-12-07T10:50:28;25.13;;;14.00;;
5460;SDS011;2753;49.196;8.286;2022-12-07T10:53:01;24.87;;;13.37;;
5460;SDS011;2753;49.196;8.286;2022-12-07T11:09:47;21.40;;;13.33;;
5460;SDS011;2753;49.196;8.286;2022-12-07T11:20:49;24.17;;;11.87;;
5460;SDS011;2753;49.196;8.286;2022-12-07T11:32:45;24.40;;;13.57;;
5460;SDS011;2753;49.196;8.286;2022-12-07T11:40:39;30.03;;;13.50;;
5460;SDS011;2753;49.196;8.286;2022-12-07T11:43:31;39.47;;;17.13;;
5460;SDS011;2753;49.196;8.286;2022-12-07T11:46:07;29.57;;;15.90;;
5460;SDS011;2753;49.196;8.286;2022-12-07T11:51:06;32.63;;;17.73;;
5460;SDS011;2753;49.196;8.286;2022-12-07T11:53:44;33.87;;;19.03;;
5460;SDS011;2753;49.196;8.286;2022-12-07T11:56:19;26.57;;;12.80;;
5460;SDS011;2753;49.196;8.286;2022-12-07T12:01:25;21.00;;;13.40;;
5460;SDS011;2753;49.196;8.286;2022-12-07T12:06:39;20.30;;;11.30;;
5460;SDS011;2753;49.196;8.286;2022-12-07T12:22:23;24.37;;;11.67;;
5460;SDS011;2753;49.196;8.286;2022-12-07T12:24:55;22.90;;;11.40;;
5460;SDS011;2753;49.196;8.286;2022-12-07T12:27:26;23.13;;;11.20;;
5460;SDS011;2753;49.196;8.286;2022-12-07T12:29:56;18.27;;;9.93;;
5460;SDS011;2753;49.196;8.286;2022-12-07T12:32:43;14.60;;;8.77;;
5460;SDS011;2753;49.196;8.286;2022-12-07T12:37:52;19.60;;;11.33;;
5460;SDS011;2753;49.196;8.286;2022-12-07T12:42:56;17.53;;;9.83;;
5460;SDS011;2753;49.196;8.286;2022-12-07T12:45:29;14.43;;;8.97;;
5460;SDS011;2753;49.196;8.286;2022-12-07T12:48:04;13.80;;;8.40;;
5460;SDS011;2753;49.196;8.286;2022-12-07T12:50:48;11.70;;;7.70;;
5460;SDS011;2753;49.196;8.286;2022-12-07T12:53:34;14.27;;;8.40;;
5460;SDS011;2753;49.196;8.286;2022-12-07T12:58:50;15.10;;;9.00;;
5460;SDS011;2753;49.196;8.286;2022-12-07T13:01:44;17.57;;;7.47;;
5460;SDS011;2753;49.196;8.286;2022-12-07T13:04:23;14.20;;;6.83;;
5460;SDS011;2753;49.196;8.286;2022-12-07T13:06:54;26.10;;;8.37;;
5460;SDS011;2753;49.196;8.286;2022-12-07T13:09:24;13.80;;;7.30;;
5460;SDS011;2753;49.196;8.286;2022-12-07T13:12:12;13.13;;;6.53;;
5460;SDS011;2753;49.196;8.286;2022-12-07T13:14:41;8.63;;;5.93;;
5460;SDS011;2753;49.196;8.286;2022-12-07T13:24:57;11.80;;;7.07;;
5460;SDS011;2753;49.196;8.286;2022-12-07T13:27:37;12.67;;;7.83;;
5460;SDS011;2753;49.196;8.286;2022-12-07T13:30:23;18.93;;;7.80;;
5460;SDS011;2753;49.196;8.286;2022-12-07T13:32:56;17.67;;;8.80;;
5460;SDS011;2753;49.196;8.286;2022-12-07T13:35:27;19.70;;;8.37;;
5460;SDS011;2753;49.196;8.286;2022-12-07T13:37:54;22.87;;;10.70;;
5460;SDS011;2753;49.196;8.286;2022-12-07T13:40:21;28.00;;;12.73;;
5460;SDS011;2753;49.196;8.286;2022-12-07T13:42:47;27.17;;;9.70;;
5460;SDS011;2753;49.196;8.286;2022-12-07T13:45:22;19.20;;;10.47;;
5460;SDS011;2753;49.196;8.286;2022-12-07T13:48:10;23.50;;;9.37;;
5460;SDS011;2753;49.196;8.286;2022-12-07T13:50:42;26.17;;;11.73;;
5460;SDS011;2753;49.196;8.286;2022-12-07T13:53:11;22.03;;;9.87;;
5460;SDS011;2753;49.196;8.286;2022-12-07T13:55:43;17.83;;;10.00;;
5460;SDS011;2753;49.196;8.286;2022-12-07T13:58:11;23.57;;;10.40;;
5460;SDS011;2753;49.196;8.286;2022-12-07T14:00:37;21.10;;;10.20;;
5460;SDS011;2753;49.196;8.286;2022-12-07T14:03:04;24.50;;;11.53;;
5460;SDS011;2753;49.196;8.286;2022-12-07T14:06:03;21.17;;;8.93;;
5460;SDS011;2753;49.196;8.286;2022-12-07T14:08:39;17.40;;;9.80;;
5460;SDS011;2753;49.196;8.286;2022-12-07T14:11:05;15.60;;;9.00;;
5460;SDS011;2753;49.196;8.286;2022-12-07T14:13:35;11.87;;;7.93;;
5460;SDS011;2753;49.196;8.286;2022-12-07T14:16:06;13.77;;;7.77;;
5460;SDS011;2753;49.196;8.286;2022-12-07T14:18:44;16.63;;;9.70;;
5460;SDS011;2753;49.196;8.286;2022-12-07T14:23:35;20.67;;;8.63;;
5460;SDS011;2753;49.196;8.286;2022-12-07T14:26:21;15.80;;;7.73;;
5460;SDS011;2753;49.196;8.286;2022-12-07T14:28:47;14.03;;;8.80;;
5460;SDS011;2753;49.196;8.286;2022-12-07T14:31:14;17.20;;;9.10;;
5460;SDS011;2753;49.196;8.286;2022-12-07T14:33:41;12.00;;;7.50;;
5460;SDS011;2753;49.196;8.286;2022-12-07T14:36:08;13.67;;;7.97;;
5460;SDS011;2753;49.196;8.286;2022-12-07T14:38:35;11.93;;;7.50;;
5460;SDS011;2753;49.196;8.286;2022-12-07T14:41:03;13.27;;;6.90;;
5460;SDS011;2753;49.196;8.286;2022-12-07T14:43:49;11.00;;;8.13;;
5460;SDS011;2753;49.196;8.286;2022-12-07T14:46:14;17.33;;;8.90;;
5460;SDS011;2753;49.196;8.286;2022-12-07T14:48:40;13.37;;;7.97;;
5460;SDS011;2753;49.196;8.286;2022-12-07T14:51:07;13.60;;;7.50;;
5460;SDS011;2753;49.196;8.286;2022-12-07T14:53:36;16.50;;;8.20;;
5460;SDS011;2753;49.196;8.286;2022-12-07T14:56:06;14.83;;;8.20;;
5460;SDS011;2753;49.196;8.286;2022-12-07T14:58:33;11.17;;;7.37;;
5460;SDS011;2753;49.196;8.286;2022-12-07T15:00:59;15.07;;;7.87;;
5460;SDS011;2753;49.196;8.286;2022-12-07T15:03:25;19.57;;;9.13;;
5460;SDS011;2753;49.196;8.286;2022-12-07T15:05:51;16.00;;;9.10;;
5460;SDS011;2753;49.196;8.286;2022-12-07T15:08:17;19.90;;;9.10;;
5460;SDS011;2753;49.196;8.286;2022-12-07T15:10:42;19.07;;;10.40;;
5460;SDS011;2753;49.196;8.286;2022-12-07T15:13:08;20.03;;;9.77;;
5460;SDS011;2753;49.196;8.286;2022-12-07T15:15:53;23.60;;;11.40;;
5460;SDS011;2753;49.196;8.286;2022-12-07T15:18:20;16.30;;;9.37;;
5460;SDS011;2753;49.196;8.286;2022-12-07T15:20:46;17.97;;;9.40;;
5460;SDS011;2753;49.196;8.286;2022-12-07T15:23:12;21.93;;;10.77;;
5460;SDS011;2753;49.196;8.286;2022-12-07T15:25:42;17.40;;;9.77;;
5460;SDS011;2753;49.196;8.286;2022-12-07T15:28:08;17.37;;;10.27;;
5460;SDS011;2753;49.196;8.286;2022-12-07T15:30:36;21.97;;;10.43;;
5460;SDS011;2753;49.196;8.286;2022-12-07T15:33:05;23.33;;;11.37;;
5460;SDS011;2753;49.196;8.286;2022-12-07T15:35:31;25.17;;;11.40;;
5460;SDS011;2753;49.196;8.286;2022-12-07T15:37:57;26.17;;;11.30;;
5460;SDS011;2753;49.196;8.286;2022-12-07T15:40:22;23.07;;;12.20;;
5460;SDS011;2753;49.196;8.286;2022-12-07T15:42:48;18.83;;;11.40;;
5460;SDS011;2753;49.196;8.286;2022-12-07T15:45:14;23.67;;;12.47;;
5460;SDS011;2753;49.196;8.286;2022-12-07T15:47:40;22.17;;;11.87;;
5460;SDS011;2753;49.196;8.286;2022-12-07T15:50:08;25.53;;;11.67;;
5460;SDS011;2753;49.196;8.286;2022-12-07T15:52:37;26.10;;;14.30;;
5460;SDS011;2753;49.196;8.286;2022-12-07T15:55:03;23.93;;;13.67;;
5460;SDS011;2753;49.196;8.286;2022-12-07T15:57:30;50.23;;;23.00;;
5460;SDS011;2753;49.196;8.286;2022-12-07T15:59:56;32.77;;;14.83;;
5460;SDS011;2753;49.196;8.286;2022-12-07T16:02:22;34.10;;;19.13;;
5460;SDS011;2753;49.196;8.286;2022-12-07T16:04:48;21.63;;;12.20;;
5460;SDS011;2753;49.196;8.286;2022-12-07T16:07:15;59.67;;;26.40;;
5460;SDS011;2753;49.196;8.286;2022-12-07T16:09:41;27.33;;;15.47;;
5460;SDS011;2753;49.196;8.286;2022-12-07T16:12:08;35.93;;;17.90;;
5460;SDS011;2753;49.196;8.286;2022-12-07T16:14:35;29.10;;;15.17;;
5460;SDS011;2753;49.196;8.286;2022-12-07T16:17:01;25.30;;;12.90;;
5460;SDS011;2753;49.196;8.286;2022-12-07T16:19:29;22.17;;;13.80;;
5460;SDS011;2753;49.196;8.286;2022-12-07T16:21:55;32.77;;;16.80;;
5460;SDS011;2753;49.196;8.286;2022-12-07T16:24:21;37.10;;;16.07;;
5460;SDS011;2753;49.196;8.286;2022-12-07T16:26:47;23.83;;;13.90;;
5460;SDS011;2753;49.196;8.286;2022-12-07T16:29:14;23.20;;;13.07;;
5460;SDS011;2753;49.196;8.286;2022-12-07T16:31:44;21.90;;;11.50;;
5460;SDS011;2753;49.196;8.286;2022-12-07T16:34:14;26.13;;;12.47;;
5460;SDS011;2753;49.196;8.286;2022-12-07T16:36:40;30.57;;;17.40;;
5460;SDS011;2753;49.196;8.286;2022-12-07T16:39:06;35.33;;;14.53;;
5460;SDS011;2753;49.196;8.286;2022-12-07T16:41:32;29.17;;;14.77;;
5460;SDS011;2753;49.196;8.286;2022-12-07T16:44:01;32.20;;;16.23;;
5460;SDS011;2753;49.196;8.286;2022-12-07T16:46:29;31.23;;;14.23;;
5460;SDS011;2753;49.196;8.286;2022-12-07T16:48:57;26.73;;;12.47;;
5460;SDS011;2753;49.196;8.286;2022-12-07T16:51:23;27.20;;;14.70;;
5460;SDS011;2753;49.196;8.286;2022-12-07T16:53:48;27.53;;;12.90;;
5460;SDS011;2753;49.196;8.286;2022-12-07T16:56:18;19.20;;;11.63;;
5460;SDS011;2753;49.196;8.286;2022-12-07T16:58:44;19.43;;;11.90;;
5460;SDS011;2753;49.196;8.286;2022-12-07T17:01:13;24.07;;;14.30;;
5460;SDS011;2753;49.196;8.286;2022-12-07T17:03:47;22.60;;;13.20;;
5460;SDS011;2753;49.196;8.286;2022-12-07T17:06:20;18.20;;;11.50;;
5460;SDS011;2753;49.196;8.286;2022-12-07T17:08:48;20.67;;;12.73;;
5460;SDS011;2753;49.196;8.286;2022-12-07T17:11:22;22.27;;;13.33;;
5460;SDS011;2753;49.196;8.286;2022-12-07T17:13:49;30.23;;;12.87;;
5460;SDS011;2753;49.196;8.286;2022-12-07T17:16:34;29.30;;;15.40;;
5460;SDS011;2753;49.196;8.286;2022-12-07T17:19:03;28.93;;;16.03;;
5460;SDS011;2753;49.196;8.286;2022-12-07T17:21:30;27.83;;;17.17;;
5460;SDS011;2753;49.196;8.286;2022-12-07T17:23:58;31.30;;;13.90;;
5460;SDS011;2753;49.196;8.286;2022-12-07T17:26:25;61.00;;;29.60;;
5460;SDS011;2753;49.196;8.286;2022-12-07T17:28:51;45.63;;;22.53;;
5460;SDS011;2753;49.196;8.286;2022-12-07T17:31:18;30.83;;;15.13;;
5460;SDS011;2753;49.196;8.286;2022-12-07T17:33:45;45.80;;;24.50;;
5460;SDS011;2753;49.196;8.286;2022-12-07T17:36:16;29.93;;;17.27;;
5460;SDS011;2753;49.196;8.286;2022-12-07T17:38:42;32.37;;;15.53;;
5460;SDS011;2753;49.196;8.286;2022-12-07T17:41:12;28.27;;;15.97;;
5460;SDS011;2753;49.196;8.286;2022-12-07T17:43:58;29.27;;;15.90;;
5460;SDS011;2753;49.196;8.286;2022-12-07T17:46:25;34.83;;;15.83;;
5460;SDS011;2753;49.196;8.286;2022-12-07T17:48:53;26.53;;;15.40;;
5460;SDS011;2753;49.196;8.286;2022-12-07T17:51:19;29.43;;;15.00;;
5460;SDS011;2753;49.196;8.286;2022-12-07T17:54:03;35.27;;;17.10;;